x

Neah Bay, - 6nm North Of Cape Flattery, Wa (traffic Separation Lighted Buoy) (46087) Wave Buoy

7:20pm - Mon 1st Jun 2015 All times are PDT. -7 hours from GMT.

  • Sig Wave height 2.3ft
  • Swell Direction
  • Peak Period 13s
  • Average Period 6s
  • Wind
  • Sea Temp 53°f
  • 空気 Temp 53°f
  • Sea Pressure 1013.8mb
  • Neah Bay, - 6nm North Of Cape Flattery, Wa     (traffic Separation Lighted Buoy)
  • Neah Bay, - 6nm North Of Cape Flattery, Wa     (traffic Separation Lighted Buoy)

More Historic Weather Station data

Upgrade to MSW Pro to gain access to the past 30 days of data for over 8000 Wavebouys and Weather Stations around the globe.

Join Pro

Comparision Forecast

View Surf forecast
   
Mon 06/01 7:20pm 2.5ft 13s 6s  -  2 mph 1013.8mb 53f 53f
6:50pm 2.5ft 6s 6s 2
mph
1013.8mb 53f 53f
6:20pm 2.5ft 14s 7s 4
mph
1013.9mb 53f 53f
5:50pm 2.5ft 15s 6s 7
mph
1013.9mb 53f 53f
5:20pm 2.5ft 14s 6s 4 7 mph 1013.9mb 53f 53f
4:50pm 2.5ft 13s 6s 4
mph
1013.8mb 53f 53f
4:20pm 2.5ft 7s 6s 2
mph
1013.7mb 53f 53f
3:50pm 2.5ft 13s 6s 4
mph
1013.7mb 53f 53f
3:20pm 2.5ft 16s 6s 4
mph
1013.7mb 53f 53f
2:50pm 2.5ft 14s 5s 4 7 mph 1013.9mb 53f 53f
2:20pm 2.5ft 13s 5s 4
mph
1013.9mb 53f 53f
1:50pm 2.5ft 16s 5s 4 7 mph 1013.6mb 53f 53f
1:20pm 2.5ft 14s 5s 7
mph
1013.5mb 53f 53f
12:50pm 2.5ft 13s 6s 7 9 mph 1013.4mb 53f 53f
12:20pm 2.5ft 13s 5s 7
mph
1013.4mb 52f 52f
11:50am 2.5ft 13s 5s 7 9 mph 1013.2mb 52f 52f
11:20am 2.5ft 14s 6s 2 4 mph 1013.1mb 52f 52f
10:50am 2.5ft 13s 6s 4
mph
1013.2mb 52f 52f
10:20am 2.5ft 13s 6s 7
mph
1013.1mb 52f 52f
9:50am 2.5ft 16s 6s 7
mph
1012.9mb 52f 52f
9:20am 2.5ft 14s 6s 7 9 mph 1013mb 52f 52f
8:50am 2.5ft 10s 6s 9 11 mph 1012.9mb 52f 52f
8:20am 2.5ft 16s 6s 7 9 mph 1012.7mb 51f 52f
7:50am 2.5ft 16s 6s 9
mph
1012.5mb 51f 52f
7:20am 2.5ft 11s 6s 11 13 mph 1012.4mb 51f 52f
6:50am 2.5ft 14s 6s 11 13 mph 1012.2mb 52f 52f
6:20am 2.5ft 10s 5s 13 16 mph 1011.7mb 52f 52f
5:50am 2.5ft 14s 6s 13 18 mph 1011.2mb 52f 51f
5:20am 2.5ft 10s 6s 13 16 mph 1010.9mb 52f 51f
4:50am 2.5ft 11s 6s 11 13 mph 1010.6mb 52f 51f
4:20am 2.5ft 14s 6s 11 13 mph 1010.2mb 52f 51f
3:50am 2.5ft 14s 5s 9 11 mph 1010mb 52f 51f
3:20am 2.5ft 14s 6s 7 9 mph 1010mb 52f 52f
2:50am 2.5ft 14s 5s 11
mph
1009.8mb 52f 52f
2:20am 2.5ft 11s 5s 9 11 mph 1009.5mb 52f 52f
1:50am 2.5ft 11s 6s 11 13 mph 1009.2mb 53f 52f
1:20am 2.5ft 13s 5s 9 11 mph 1009.1mb 52f 51f
12:50am 2.5ft 12s 6s 9 11 mph 1009mb 53f 52f
12:20am 2.5ft 11s 5s 9 11 mph 1008.6mb 52f 52f
Sun 05/31 11:50pm 2.5ft 11s 6s 7
mph
1008.9mb 52f 52f
11:20pm 3ft 14s 6s 7 9 mph 1008.9mb 53f 52f
10:50pm 2.5ft 10s 6s 7
mph
1009.1mb 53f 53f
10:20pm 2.5ft 13s 6s 7 9 mph 1009mb 53f 53f
9:50pm 2.5ft 7s 6s 4 7 mph 1009.1mb 53f 53f
9:20pm 3ft 8s 6s 9 11 mph 1009.3mb 53f 53f
8:50pm 3ft 14s 6s 9 11 mph 1009.1mb 53f 53f
8:20pm 2.5ft 12s 7s 7 9 mph 1009.6mb 53f 53f
7:50pm 2.5ft 12s 6s 9 11 mph 1009.5mb 53f 53f
7:20pm 3ft 7s 6s 9
mph
1009.6mb 53f 53f
6:50pm 3ft 8s 6s 9
mph
1009.8mb 53f 53f
6:20pm 3ft 10s 6s 9
mph
1010mb 53f 53f
5:50pm 2.5ft 14s 6s 7 9 mph 1009.9mb 53f 53f
5:20pm 2.5ft 11s 6s 9 11 mph 1010.3mb 54f 53f
4:50pm 2.5ft 14s 6s 9
mph
1010.7mb 54f 53f
3:50pm 2.5ft 14s 6s 7 9 mph 1011.1mb 54f 53f
3:20pm 2.5ft 14s 6s 7 9 mph 1011.2mb 54f 53f
2:50pm 2.5ft 6s 6s 4 7 mph 1011.3mb 54f 52f
2:20pm 3ft 11s 6s 4
mph
1011.6mb 53f 52f
1:50pm 3ft 13s 6s 7 9 mph 1011.8mb 53f 51f
1:20pm 3ft 5s 6s 4 7 mph 1012.6mb 53f 51f
12:50pm 3ft 11s 6s 4 7 mph 1012.6mb 53f 51f
12:20pm 3ft 14s 6s 2
mph
1012.3mb 53f 51f
11:50am 3ft 12s 6s 2 4 mph 1012.4mb 53f 51f
11:20am 3.5ft 14s 6s 4
mph
1012.5mb 53f 51f
10:50am 3ft 14s 6s 2 4 mph 1012.7mb 53f 50f
10:20am 3ft 14s 7s 2 4 mph 1012.6mb 52f 50f
9:50am 3ft 14s 6s 2 4 mph 1013mb 52f 50f
9:20am 3ft 14s 7s 2 4 mph 1012.9mb 52f 50f
8:50am 3ft 15s 7s 4
mph
1013mb 52f 50f
8:20am 3ft 14s 7s 4 7 mph 1013.1mb 52f 50f
7:50am 3.5ft 14s 7s  -  2 mph 1013.3mb 52f 50f
7:20am 3ft 10s 7s 2
mph
1013.4mb 52f 50f
6:50am 2.5ft 14s 7s 4
mph
1013.2mb 52f 50f
6:20am 3ft 12s 7s 4 7 mph 1013.4mb 52f 50f
5:50am 3ft 10s 7s 2 4 mph 1013.3mb 52f 50f
5:20am 2.5ft 12s 7s 2 4 mph 1013.4mb 52f 50f
4:50am 2.5ft 15s 7s 2 7 mph 1012.9mb 52f 49f
4:20am 3.5ft 10s 7s 4
mph
1013.2mb 52f 49f
3:50am 3ft 15s 7s 7 9 mph 1013.7mb 52f 49f
3:20am 2.5ft 15s 7s 7 9 mph 1014.1mb 52f 50f
2:50am 3ft 15s 6s 2 4 mph 1014.2mb 52f 49f
2:20am 3ft 15s 6s 4 7 mph 1014.1mb 52f 49f
1:50am 3ft 15s 6s 4 7 mph 1014.2mb 52f 50f
1:20am 3ft 14s 6s 4 7 mph 1014.3mb 52f 50f
12:50am 3ft 15s 6s 7
mph
1014.4mb 52f 50f
12:20am 3.5ft 15s 6s 7 9 mph 1014.4mb 52f 51f
Sat 05/30 11:50pm 3.5ft 8s 6s 4
mph
1014.5mb 52f 51f
11:20pm 3.5ft 8s 6s 4 7 mph 1014.6mb 53f 51f
10:50pm 3.5ft 15s 6s 7 11 mph 1014.6mb 53f 51f
10:20pm 3.5ft 15s 6s 4 7 mph 1014.5mb 53f 51f
9:50pm 3.5ft 7s 6s 4 9 mph 1014.3mb 53f 51f
9:20pm 3.5ft 6s 6s 9 11 mph 1014.2mb 53f 51f
8:50pm 3.5ft 6s 6s 7 11 mph 1014.3mb 53f 52f
8:20pm 4ft 7s 7s 9 13 mph 1014.5mb 53f 52f
7:50pm 4ft 6s 7s 9 11 mph 1014.6mb 53f 52f
7:20pm 4ft 6s 7s 7 11 mph 1014.6mb 53f 52f
6:50pm 4ft 7s 7s 9 13 mph 1014.6mb 53f 52f
6:20pm 4ft 7s 7s 9 13 mph 1014.6mb 54f 53f
5:50pm 4.5ft 7s 6s 7 11 mph 1014.7mb 53f 53f
5:20pm 4ft 7s 6s 7 9 mph 1014.8mb 53f 53f
4:50pm 4ft 7s 7s 7 9 mph 1015mb 53f 53f
4:20pm 4ft 7s 6s 7 9 mph 1015.4mb 53f 53f
3:50pm 4ft 7s 6s 7 9 mph 1015.7mb 53f 53f
3:20pm 4.5ft 7s 6s 7 9 mph 1016mb 53f 53f
2:50pm 4ft 6s 6s 9
mph
1016.2mb 53f 52f
2:20pm 4ft 13s 6s 9 11 mph 1016.1mb 53f 52f
1:50pm 4.5ft 7s 6s 9 11 mph 1016.2mb 53f 52f
1:20pm 4ft 6s 6s 11 13 mph 1016.1mb 53f 53f
12:50pm 4.5ft 7s 6s 9
mph
1015.8mb 53f 53f
12:20pm 4.5ft 7s 6s 9
mph
1015.5mb 53f 53f
11:50am 4.5ft 7s 6s 7 9 mph 1015.4mb 53f 53f
11:20am 4.5ft 7s 6s 4
mph
1015.2mb 53f 53f
10:50am 4.5ft 6s 6s 2 4 mph 1015.1mb 52f 52f
10:20am 4.5ft 7s 6s 4
mph
1015mb 52f 52f
9:50am 4.5ft 7s 6s 4 7 mph 1015mb 52f 52f
9:20am 4.5ft 7s 6s 4 9 mph 1015.1mb 52f 52f
8:50am 4.5ft 7s 6s 7
mph
1015.4mb 52f 52f
8:20am 5ft 7s 7s 4 7 mph 1015.4mb 52f 52f
7:50am 5ft 7s 6s 4
mph
1015.4mb 52f 52f
7:20am 4.5ft 7s 7s 4 7 mph 1015.2mb 52f 52f
6:50am 4.5ft 7s 7s 4 7 mph 1015.1mb 52f 52f
6:20am 4.5ft 8s 7s 4 7 mph 1015mb 52f 52f
5:50am 4.5ft 7s 7s 4 7 mph 1015mb 52f 52f
5:20am 4.5ft 7s 7s 9 11 mph 1014.8mb 52f 52f
4:50am 4.5ft 7s 7s 7 11 mph 1014.8mb 52f 52f
4:20am 4.5ft 6s 6s 7 9 mph 1014.8mb 52f 52f
3:50am 4.5ft 7s 6s 4 7 mph 1014.8mb 52f 52f
3:20am 5ft 7s 6s 7 9 mph 1014.7mb 52f 52f
2:50am 5ft 7s 6s 4 7 mph 1014.7mb 52f 52f
2:20am 5ft 7s 6s 7 9 mph 1014.6mb 52f 52f
1:50am 5ft 7s 6s 7
mph
1014.6mb 52f 52f
1:20am 4.5ft 7s 6s 7 9 mph 1014.6mb 52f 52f
12:50am 4.5ft 7s 6s 7 11 mph 1014.9mb 52f 52f
12:20am 4.5ft 7s 6s 7 11 mph 1014.8mb 52f 52f
Fri 05/29 11:50pm 4.5ft 7s 6s 4 7 mph 1014.5mb 52f 52f
11:20pm 4.5ft 7s 6s 4 7 mph 1014.5mb 52f 52f
10:50pm 4.5ft 7s 6s 7 11 mph 1014.6mb 52f 52f
10:20pm 4.5ft 8s 6s 4 7 mph 1014.5mb 53f 52f
9:50pm 4.5ft 7s 6s 4 7 mph 1014.5mb 53f 52f
9:20pm 4.5ft 8s 6s 4
mph
1014.4mb 53f 52f
8:50pm 4.5ft 8s 6s 4 7 mph 1014.4mb 53f 51f
8:20pm 5ft 8s 7s 9 11 mph 1014.6mb 53f 51f
7:50pm 5ft 8s 7s 11 13 mph 1014.7mb 53f 51f
7:20pm 5ft 8s 6s 9 11 mph 1014.7mb 53f 51f
6:50pm 5ft 8s 7s 9 13 mph 1014.8mb 53f 52f
6:20pm 4.5ft 7s 7s 11 13 mph 1014.9mb 52f 52f
5:50pm 5ft 7s 7s 11 13 mph 1015.2mb 52f 52f
5:20pm 5ft 8s 7s 9 13 mph 1015.4mb 53f 52f
4:50pm 5ft 8s 7s 11 13 mph 1015.5mb 52f 53f
4:20pm 5ft 8s 7s 11 13 mph 1015.7mb 52f 53f
3:50pm 5ft 7s 7s 7 11 mph 1015.8mb 52f 52f
3:20pm 5ft 8s 7s 11 16 mph 1015.8mb 52f 52f
2:50pm 4.5ft 7s 7s 11 13 mph 1015.9mb 53f 53f
2:20pm 5ft 8s 7s 11 16 mph 1016mb 53f 52f
1:50pm 5ft 8s 7s 9 11 mph 1016.1mb 52f 52f
1:20pm 5ft 8s 7s 11 13 mph 1016.1mb 51f 52f
12:50pm 5ft 7s 6s 11 13 mph 1016.2mb 51f 52f
12:20pm 5.5ft 7s 6s 11 16 mph 1016.4mb 51f 52f
11:50am 5.5ft 7s 6s 9 13 mph 1016.5mb 51f 52f
11:20am 5.5ft 7s 7s 11 13 mph 1016.5mb 51f 52f
10:50am 6ft 8s 7s 9 11 mph 1016.6mb 51f 51f
10:20am 5.5ft 7s 7s 11 13 mph 1016.5mb 51f 51f
9:50am 5.5ft 8s 7s 11 13 mph 1016.6mb 51f 51f
9:20am 5ft 8s 7s 11 13 mph 1016.5mb 50f 50f
8:50am 5.5ft 7s 7s 9 11 mph 1016.4mb 50f 50f
8:20am 6ft 8s 7s 11 13 mph 1016.2mb 50f 50f
7:50am 6ft 7s 7s 9 13 mph 1016.2mb 50f 50f
7:20am 6ft 8s 7s 9 11 mph 1016.3mb 50f 49f
6:50am 5.5ft 8s 7s 9 11 mph 1016.3mb 50f 49f
6:20am 5.5ft 8s 7s 9 11 mph 1016.2mb 50f 50f
5:50am 5.5ft 8s 8s 7 9 mph 1016.2mb 50f 49f
5:20am 5.5ft 9s 8s 7 11 mph 1016.4mb 50f 49f
4:50am 5ft 8s 8s 9 11 mph 1016.4mb 50f 49f
4:20am 5ft 8s 8s 9 11 mph 1016.5mb 51f 49f
3:50am 5ft 8s 8s 9 11 mph 1016.5mb 51f 49f
3:20am 5ft 8s 8s 9 11 mph 1016.5mb 51f 49f